KJAN/JAN METAR and TAF weather

Enter ICAO airport designator
Station Type Date Time Source
KJAN METAR 2019/07/15 19:54 UTC NOAA

KJAN 151954Z 19015G25KT 10SM FEW027 SCT036 BKN046 31/23 A3001 RMK AO2 SLP155 T03060228


Station Type Date Time Source
KJAN Decoded METAR 2019/07/15 19:54 UTC NOAA

Jackson, Jackson International Airport, MS, United States (KJAN) 32-19-11N 090-04-39W 89M
Jul 15, 2019 - 03:54 PM EDT / 2019.07.15 1954 UTC
Wind: from the S (190 degrees) at 17 MPH (15 KT) gusting to 29 MPH (25 KT):0
Visibility: 10 mile(s):0
Sky conditions: mostly cloudy
Temperature: 87.1 F (30.6 C)
Heat index: 94.5 F (34.7 C):1
Dew Point: 73.0 F (22.8 C)
Relative Humidity: 63%
Pressure (altimeter): 30.01 in. Hg (1016 hPa)
ob: KJAN 151954Z 19015G25KT 10SM FEW027 SCT036 BKN046 31/23 A3001 RMK AO2 SLP155 T03060228
cycle: 20

Station Type Date Time Source
KJAN TAF 2019/07/15 18:22 UTC NOAA

TAF KJAN 151720Z 1518/1618 18013G24KT P6SM -SHRA SCT025 OVC090
FM160300 16009KT P6SM OVC090
FM160500 16009KT P6SM BKN015
FM161300 19007KT P6SM BKN008
FM161500 19008KT P6SM BKN025

Example: see airport list